Flight Track Log - Related Links

Times and Time Zones

All times are in EDT time to prevent confusion due to time zone crossing. See the CLH2157 flight status page for this flight to view local times or setup timezone preferences in your user account.

Time Position Orientation Groundspeed Altitude Reporting Facility
EDT Latitude Longitude Course Direction KTS MPH feet Rate Location/Type
Sun 07:46:15 AM 49.4857 11.0863 158° South  Level Estimated
Sun 07:47:15 AM 49.4341 11.1190 158° South  Level Estimated
Sun 07:48:15 AM 49.3824 11.1516 158° South  Level Estimated
Sun 07:49:15 AM 49.3307 11.1842 158° South  Level Estimated
Sun 07:50:15 AM 49.2790 11.2167 158° South  Level Estimated
Sun 07:51:15 AM 49.1756 11.2814 158° South  Level Estimated
Sun 07:52:15 AM 49.0722 11.3459 158° South  Level Estimated
Sun 07:53:15 AM 48.9687 11.4102 158° South  Level Estimated
Sun 07:54:15 AM 48.8652 11.4741 158° South  Level Estimated
Sun 07:55:15 AM 48.7617 11.5379 158° South  Level Estimated
Sun 07:56:15 AM 48.6581 11.6013 158° South  Level Estimated
Sun 07:57:15 AM 48.5545 11.6645 158° South  Level Estimated
Sun 07:58:15 AM 48.4508 11.7274 158° South  Level Estimated
Sun 07:59:15 AM 48.3471 11.7901 338° Northwest  Level Estimated
Sun 08:00:15 AM 48.4508 11.7274 158° South  Level Estimated
Sun 08:01:15 AM 48.3471 11.7901 338° Northwest  Level Estimated
Sun 08:02:15 AM 48.4508 11.7274 158° South  Level Estimated
Sun 08:03:15 AM 48.3471 11.7901 338° Northwest  Level Estimated
Sun 08:04:15 AM 48.4508 11.7274 158° South  Level Estimated
Sun 08:05:15 AM 48.3471 11.7901 338° Northwest  Level Estimated
Sun 08:06:15 AM 48.4508 11.7274 158° South  Level Estimated
Sun 08:07:15 AM 48.3471 11.7901 338° Northwest  Level Estimated
Sun 08:08:15 AM 48.4508 11.7274 158° South  Level Estimated
Sun 08:09:15 AM 48.3471 11.7901 338° Northwest  Level Estimated
Sun 08:10:15 AM 48.4508 11.7274 338° Northwest  Level Estimated

Login

Don't have an account? Register now (free) for customized features, flight alerts, and more!